MAPA DE AEROPUERTO

INFORMACIÓN METAR y TAF

METAR FOR GCLA
ADDS - METARS form results

(2006 UTC 29 October 2020)
Data provider http://aviationweather.gov/metar/data/
 
METAR text: GCLA 292000Z 36012KT 330V030 9999 SCT038 BKN048 22/16 Q1020
Conditions at: GCLA (LA PALMA AIRPORT, ES) observed 2000 UTC 29 October 2020
Temperature: 22.0°C (72°F)
Dewpoint: 16.0°C (61°F) [RH = 69%]
Pressure (altimeter): 30.12 inches Hg (1020.0 mb)
Winds: from the N (360 degrees) at 14 MPH (12 knots; 6.2 m/s)
Visibility: 6 or more miles (10+ km)
Ceiling: 4800 feet AGL
Clouds: scattered clouds at 3800 feet AGL
broken clouds at 4800 feet AGL
Weather: no significant weather observed at this time

METAR text: GCLA 291930Z 02010KT 9999 FEW040 BKN048 22/15 Q1020
Conditions at: GCLA (LA PALMA AIRPORT, ES) observed 1930 UTC 29 October 2020
Temperature: 22.0°C (72°F)
Dewpoint: 15.0°C (59°F) [RH = 65%]
Pressure (altimeter): 30.12 inches Hg (1020.0 mb)
Winds: from the NNE (20 degrees) at 12 MPH (10 knots; 5.1 m/s)
Visibility: 6 or more miles (10+ km)
Ceiling: 4800 feet AGL
Clouds: few clouds at 4000 feet AGL
broken clouds at 4800 feet AGL
Weather: no significant weather observed at this time

Forecast for: GCLA (LA PALMA AIRPORT, ES)
Text: TAF GCLA 291400Z 2915/3015 36011KT 9999 BKN040 TX26/2915Z TN19/3007Z
Forecast period: 1500 UTC 29 October 2020 to 1500 UTC 30 October 2020
Forecast type: FROM: standard forecast or significant change
Winds: from the N (360 degrees) at 13 MPH (11 knots; 5.7 m/s)
Visibility: 6 or more miles (10+ km)
Ceiling: 4000 feet AGL
Clouds: broken clouds at 4000 feet AGL
Weather: no significant weather forecast for this period